createdAt,value
2023-09-29T00:00:17.369Z,62.69
2023-09-29T00:03:10.355Z,62.72
2023-09-29T00:05:42.665Z,62.78
2023-09-29T00:08:17.947Z,62.74
2023-09-29T00:10:51.318Z,62.82
2023-09-29T00:13:23.230Z,62.79
2023-09-29T00:15:55.156Z,62.83
2023-09-29T00:18:27.999Z,62.82
2023-09-29T00:20:59.940Z,62.78
2023-09-29T00:23:32.102Z,62.87
2023-09-29T00:26:04.512Z,62.93
2023-09-29T00:28:36.643Z,62.89
2023-09-29T00:31:10.046Z,62.87
2023-09-29T00:33:42.065Z,63.06
2023-09-29T00:36:14.417Z,62.99
2023-09-29T00:38:46.389Z,63.07
2023-09-29T00:41:18.697Z,63.19
2023-09-29T00:43:51.415Z,63.20
2023-09-29T00:46:23.553Z,63.14
2023-09-29T00:48:56.291Z,63.37
2023-09-29T00:51:29.338Z,63.27
2023-09-29T00:54:01.949Z,63.34
2023-09-29T00:56:34.938Z,63.24
2023-09-29T00:59:10.687Z,63.25
2023-09-29T01:01:43.078Z,63.19
2023-09-29T01:04:16.489Z,63.20
2023-09-29T01:06:50.390Z,63.28
2023-09-29T01:09:22.888Z,63.30
2023-09-29T01:11:54.829Z,63.28
2023-09-29T01:14:27.101Z,63.36
2023-09-29T01:16:59.471Z,63.57
2023-09-29T01:19:32.866Z,63.65
2023-09-29T01:22:05.335Z,63.81
2023-09-29T01:24:37.246Z,63.75
2023-09-29T01:27:09.120Z,63.71
2023-09-29T01:29:44.101Z,63.70
2023-09-29T01:32:16.231Z,63.90
2023-09-29T01:34:48.101Z,63.87
2023-09-29T01:37:22.678Z,63.86
2023-09-29T01:39:54.877Z,63.92
2023-09-29T01:42:26.752Z,63.95
2023-09-29T01:44:58.783Z,63.91
2023-09-29T01:47:31.613Z,64.09
2023-09-29T01:50:03.786Z,64.07
2023-09-29T01:52:35.748Z,64.05
2023-09-29T01:55:12.517Z,63.99
2023-09-29T01:57:42.979Z,64.12
2023-09-29T02:00:20.824Z,64.25
2023-09-29T02:02:54.665Z,64.18
2023-09-29T02:05:27.407Z,64.22
2023-09-29T02:08:04.471Z,64.08
2023-09-29T02:10:36.505Z,64.24
2023-09-29T02:13:09.094Z,64.27
2023-09-29T02:15:42.243Z,64.32
2023-09-29T02:18:14.269Z,64.32
2023-09-29T02:20:48.729Z,64.34
2023-09-29T02:23:21.325Z,64.44
2023-09-29T02:25:53.289Z,64.47
2023-09-29T02:28:26.307Z,64.43
2023-09-29T02:30:58.235Z,64.51
2023-09-29T02:33:33.188Z,64.48
2023-09-29T02:36:05.248Z,64.49
2023-09-29T02:38:37.756Z,64.47
2023-09-29T02:41:09.680Z,64.57
2023-09-29T02:43:41.657Z,64.52
2023-09-29T02:46:17.888Z,64.55
2023-09-29T02:48:50.082Z,64.57
2023-09-29T02:51:22.555Z,64.50
2023-09-29T02:53:56.112Z,64.69
2023-09-29T02:56:28.162Z,64.79
2023-09-29T02:59:00.728Z,64.73
2023-09-29T03:01:33.655Z,64.89
2023-09-29T03:04:08.598Z,64.79
2023-09-29T03:06:41.232Z,64.83
2023-09-29T03:09:14.896Z,64.85
2023-09-29T03:11:46.879Z,64.77
2023-09-29T03:14:19.037Z,64.78
2023-09-29T03:16:50.983Z,64.77
2023-09-29T03:19:22.926Z,64.84
2023-09-29T03:21:55.009Z,64.89
2023-09-29T03:24:28.659Z,64.90
2023-09-29T03:27:02.633Z,64.89
2023-09-29T03:29:36.654Z,64.90
2023-09-29T03:32:09.659Z,64.87
2023-09-29T03:34:42.882Z,64.93
2023-09-29T03:37:14.882Z,64.88
2023-09-29T03:39:49.176Z,65.01
2023-09-29T03:42:21.490Z,65.02
2023-09-29T03:44:53.532Z,65.06
2023-09-29T03:47:25.505Z,65.00
2023-09-29T03:49:57.727Z,65.08
2023-09-29T03:52:30.874Z,65.08
2023-09-29T03:55:02.883Z,65.11
2023-09-29T03:57:35.995Z,65.10
2023-09-29T04:00:13.262Z,65.11
2023-09-29T04:02:45.825Z,65.08
2023-09-29T04:05:18.608Z,65.12
2023-09-29T04:07:50.492Z,65.15
2023-09-29T04:10:22.737Z,65.30
2023-09-29T04:12:54.706Z,65.33
2023-09-29T04:15:28.475Z,65.29
2023-09-29T04:18:00.466Z,65.27
2023-09-29T04:20:32.849Z,65.30
2023-09-29T04:23:07.839Z,65.31
2023-09-29T04:25:39.959Z,65.42
2023-09-29T04:28:11.838Z,65.48
2023-09-29T04:30:43.807Z,65.57
2023-09-29T04:33:15.875Z,65.62
2023-09-29T04:35:47.954Z,65.72
2023-09-29T04:38:19.876Z,65.68
2023-09-29T04:40:51.914Z,65.81
2023-09-29T04:43:23.861Z,65.80
2023-09-29T04:45:55.736Z,65.87
2023-09-29T04:48:27.739Z,65.90
2023-09-29T04:51:00.188Z,65.89
2023-09-29T04:53:32.162Z,65.88
2023-09-29T04:56:04.616Z,65.86
2023-09-29T04:58:36.528Z,65.80
2023-09-29T05:01:08.454Z,65.74
2023-09-29T05:03:40.611Z,65.93
2023-09-29T05:06:12.744Z,65.98
2023-09-29T05:08:44.694Z,66.14
2023-09-29T05:11:23.934Z,66.17
2023-09-29T05:13:57.294Z,66.28
2023-09-29T05:16:29.209Z,66.74
2023-09-29T05:19:02.268Z,66.50
2023-09-29T05:21:35.737Z,66.28
2023-09-29T05:24:09.710Z,66.19
2023-09-29T05:26:41.711Z,66.09
2023-09-29T05:29:13.863Z,66.07
2023-09-29T05:31:46.624Z,65.87
2023-09-29T05:34:19.346Z,65.82
2023-09-29T05:36:51.298Z,65.91
2023-09-29T05:39:24.504Z,66.11
2023-09-29T05:41:56.423Z,66.05
2023-09-29T05:44:28.913Z,66.00
2023-09-29T05:47:00.972Z,65.96
2023-09-29T05:49:33.704Z,66.12
2023-09-29T05:52:05.847Z,66.07
2023-09-29T05:54:37.895Z,66.22
2023-09-29T05:57:09.936Z,66.34
2023-09-29T05:59:42.092Z,66.39
2023-09-29T06:02:19.243Z,66.59
2023-09-29T06:04:51.560Z,66.80
2023-09-29T06:07:24.038Z,66.84
2023-09-29T06:09:55.935Z,66.99
2023-09-29T06:12:27.836Z,66.95
2023-09-29T06:14:59.833Z,66.98
2023-09-29T06:17:31.968Z,66.98
2023-09-29T06:20:05.378Z,66.99
2023-09-29T06:22:37.269Z,67.05
2023-09-29T06:25:10.617Z,67.06
2023-09-29T06:27:42.784Z,67.00
2023-09-29T06:30:15.410Z,67.06
2023-09-29T06:32:47.513Z,67.06
2023-09-29T06:35:19.608Z,67.11
2023-09-29T06:37:52.624Z,67.15
2023-09-29T06:40:25.252Z,67.20
2023-09-29T06:42:57.162Z,67.17
2023-09-29T06:45:51.798Z,67.13
2023-09-29T06:48:24.921Z,67.22
2023-09-29T06:51:00.576Z,66.98
2023-09-29T06:53:33.531Z,66.95
2023-09-29T06:56:06.130Z,66.92
2023-09-29T06:58:38.161Z,66.86
2023-09-29T07:01:10.241Z,66.92
2023-09-29T07:03:42.430Z,66.82
2023-09-29T07:06:15.109Z,66.59
2023-09-29T07:08:47.499Z,66.54
2023-09-29T07:11:19.954Z,66.37
2023-09-29T07:13:53.164Z,65.74
2023-09-29T07:16:25.627Z,65.49
2023-09-29T07:19:00.416Z,65.27
2023-09-29T07:21:32.379Z,64.80
2023-09-29T07:24:04.399Z,64.62
2023-09-29T07:26:36.653Z,64.48
2023-09-29T07:29:08.794Z,64.18
2023-09-29T07:31:47.924Z,63.72
2023-09-29T07:34:19.880Z,63.34
2023-09-29T07:36:51.964Z,62.94
2023-09-29T07:39:23.965Z,62.48
2023-09-29T07:41:56.827Z,62.75
2023-09-29T07:44:28.822Z,62.51
2023-09-29T07:47:01.194Z,61.84
2023-09-29T07:49:34.512Z,61.43
2023-09-29T07:52:06.740Z,62.15
2023-09-29T07:54:38.953Z,61.41
2023-09-29T07:57:13.820Z,57.97
2023-09-29T07:59:48.152Z,54.66
2023-09-29T08:02:40.889Z,50.15
2023-09-29T08:05:33.345Z,46.15
2023-09-29T08:08:26.598Z,42.95
2023-09-29T08:11:19.017Z,39.55
2023-09-29T08:14:11.657Z,37.00
2023-09-29T08:17:04.159Z,34.80
2023-09-29T08:19:56.405Z,32.70
2023-09-29T08:22:51.091Z,30.83
2023-09-29T08:25:44.560Z,28.80
2023-09-29T08:28:36.721Z,27.49
2023-09-29T08:31:19.192Z,26.01
2023-09-29T08:34:11.823Z,24.61
2023-09-29T08:37:04.492Z,23.46
2023-09-29T08:39:56.728Z,22.29
2023-09-29T08:42:39.207Z,21.48
2023-09-29T08:45:32.680Z,20.55
2023-09-29T08:48:25.282Z,19.49
2023-09-29T08:51:18.526Z,19.26
2023-09-29T08:54:11.936Z,19.98
2023-09-29T08:57:07.163Z,21.48
2023-09-29T09:00:02.062Z,22.51
2023-09-29T09:02:56.183Z,23.35
2023-09-29T09:05:49.182Z,24.11
2023-09-29T09:08:41.973Z,24.72
2023-09-29T09:11:25.598Z,25.17
2023-09-29T09:14:01.113Z,25.77
2023-09-29T09:16:53.513Z,26.05
2023-09-29T09:19:52.317Z,26.46
2023-09-29T09:22:47.275Z,26.59
2023-09-29T09:25:44.396Z,26.83
2023-09-29T09:28:23.451Z,27.10
2023-09-29T09:31:06.253Z,27.09
2023-09-29T09:33:41.448Z,27.11
2023-09-29T09:36:33.696Z,26.94
2023-09-29T09:39:13.274Z,26.76
2023-09-29T09:42:07.081Z,26.56
2023-09-29T09:45:00.129Z,26.52
2023-09-29T09:47:54.046Z,26.51
2023-09-29T09:50:48.576Z,26.32
2023-09-29T09:53:41.554Z,25.97
2023-09-29T09:56:43.334Z,25.74
2023-09-29T09:59:36.089Z,25.13
2023-09-29T10:02:28.866Z,25.00
2023-09-29T10:05:24.925Z,24.66
2023-09-29T10:08:31.546Z,24.38
2023-09-29T10:11:29.442Z,23.84
2023-09-29T10:14:22.684Z,23.54
2023-09-29T10:17:08.351Z,23.09
2023-09-29T10:20:00.881Z,22.59
2023-09-29T10:23:04.225Z,22.04
2023-09-29T10:26:05.459Z,20.90
2023-09-29T10:29:10.264Z,20.04
2023-09-29T10:32:11.799Z,19.26
2023-09-29T10:35:07.030Z,18.86
2023-09-29T10:38:05.326Z,18.58
2023-09-29T10:40:40.259Z,18.29
2023-09-29T10:43:37.106Z,18.18
2023-09-29T10:46:30.450Z,17.54
2023-09-29T10:49:08.978Z,17.23
2023-09-29T10:51:41.110Z,16.70
2023-09-29T10:54:16.036Z,16.48
2023-09-29T10:57:09.515Z,16.35
2023-09-29T11:00:03.120Z,16.04
2023-09-29T11:02:55.580Z,15.86
2023-09-29T11:05:55.158Z,15.47
2023-09-29T11:08:34.237Z,15.32
2023-09-29T11:11:15.682Z,14.98
2023-09-29T11:13:59.982Z,15.10
2023-09-29T11:16:31.986Z,14.92
2023-09-29T11:19:26.570Z,14.67
2023-09-29T11:22:19.004Z,14.53
2023-09-29T11:25:19.329Z,14.50
2023-09-29T11:28:15.040Z,14.54
2023-09-29T11:30:49.947Z,14.82
2023-09-29T11:33:39.105Z,14.88
2023-09-29T11:36:31.509Z,14.70
2023-09-29T11:39:24.190Z,14.35
2023-09-29T11:42:03.154Z,14.51
2023-09-29T11:44:55.585Z,14.30
2023-09-29T11:47:48.302Z,14.03
2023-09-29T11:50:26.722Z,13.97
2023-09-29T11:53:11.103Z,14.07
2023-09-29T11:56:04.467Z,14.08
2023-09-29T11:58:56.677Z,13.75
2023-09-29T12:01:49.128Z,13.79
2023-09-29T12:04:41.405Z,14.00
2023-09-29T12:07:34.080Z,14.17
2023-09-29T12:10:26.735Z,14.31
2023-09-29T12:13:19.061Z,14.12
2023-09-29T12:16:11.764Z,14.09
2023-09-29T12:19:04.130Z,14.22
2023-09-29T12:21:56.746Z,14.28
2023-09-29T12:24:31.768Z,14.24
2023-09-29T12:27:10.258Z,14.17
2023-09-29T12:29:42.526Z,14.36
2023-09-29T12:32:14.751Z,14.46
2023-09-29T12:35:09.216Z,14.46
2023-09-29T12:38:04.364Z,14.38
2023-09-29T12:40:57.071Z,14.38
2023-09-29T12:43:32.237Z,14.37
2023-09-29T12:46:06.855Z,14.73
2023-09-29T12:48:59.785Z,14.62
2023-09-29T12:52:00.665Z,15.32
2023-09-29T12:54:57.981Z,15.99
2023-09-29T12:57:50.557Z,16.45
2023-09-29T13:00:42.845Z,17.33
2023-09-29T13:03:36.919Z,17.83
2023-09-29T13:06:29.284Z,18.82
2023-09-29T13:09:05.299Z,19.52
2023-09-29T13:11:37.378Z,20.31
2023-09-29T13:14:16.883Z,21.19
2023-09-29T13:17:08.941Z,21.92
2023-09-29T13:20:01.170Z,22.60
2023-09-29T13:22:33.226Z,23.35
2023-09-29T13:25:25.457Z,23.85
2023-09-29T13:28:17.681Z,24.23
2023-09-29T13:30:54.636Z,24.75
2023-09-29T13:33:47.476Z,25.33
2023-09-29T13:36:39.887Z,25.69
2023-09-29T13:39:32.202Z,26.35
2023-09-29T13:42:24.428Z,26.86
2023-09-29T13:45:10.159Z,27.18
2023-09-29T13:48:04.603Z,27.58
2023-09-29T13:50:57.030Z,27.92
2023-09-29T13:53:51.341Z,27.88
2023-09-29T13:56:28.627Z,28.34
2023-09-29T13:59:20.911Z,28.71
2023-09-29T14:02:13.240Z,28.82
2023-09-29T14:05:07.375Z,28.99
2023-09-29T14:07:56.620Z,29.49
2023-09-29T14:10:49.024Z,29.54
2023-09-29T14:13:32.670Z,29.68
2023-09-29T14:16:24.933Z,30.15
2023-09-29T14:19:17.294Z,30.51
2023-09-29T14:21:49.766Z,30.92
2023-09-29T14:24:42.191Z,31.24
2023-09-29T14:27:34.447Z,31.15
2023-09-29T14:30:10.897Z,31.36
2023-09-29T14:33:05.732Z,31.23
2023-09-29T14:35:58.288Z,31.39
2023-09-29T14:38:41.401Z,31.85
2023-09-29T14:41:34.087Z,31.99
2023-09-29T14:44:26.367Z,32.25
2023-09-29T14:47:19.041Z,32.51
2023-09-29T14:50:12.467Z,32.70
2023-09-29T14:53:04.843Z,32.56
2023-09-29T14:55:45.793Z,32.68
2023-09-29T14:58:38.972Z,32.60
2023-09-29T15:01:31.369Z,32.85
2023-09-29T15:04:13.241Z,32.75
2023-09-29T15:07:06.015Z,33.20
2023-09-29T15:09:58.111Z,33.23
2023-09-29T15:12:39.152Z,33.31
2023-09-29T15:15:31.564Z,33.50
2023-09-29T15:18:24.108Z,33.40
2023-09-29T15:21:16.606Z,33.51
2023-09-29T15:24:09.595Z,34.03
2023-09-29T15:27:01.896Z,34.35
2023-09-29T15:29:54.158Z,34.10
2023-09-29T15:32:46.880Z,34.57
2023-09-29T15:35:39.619Z,34.51
2023-09-29T15:38:31.828Z,34.61
2023-09-29T15:41:24.065Z,34.99
2023-09-29T15:44:17.340Z,35.15
2023-09-29T15:47:09.603Z,35.41
2023-09-29T15:49:51.758Z,35.76
2023-09-29T15:52:45.363Z,36.15
2023-09-29T15:55:20.551Z,36.38
2023-09-29T15:58:13.321Z,36.42
2023-09-29T16:00:45.493Z,36.37
2023-09-29T16:03:38.002Z,37.16
2023-09-29T16:06:30.591Z,37.50
2023-09-29T16:09:22.936Z,37.39
2023-09-29T16:12:15.633Z,37.71
2023-09-29T16:15:04.439Z,38.17
2023-09-29T16:17:46.339Z,38.31
2023-09-29T16:20:18.639Z,38.78
2023-09-29T16:23:11.120Z,39.24
2023-09-29T16:26:04.224Z,39.49
2023-09-29T16:28:56.934Z,39.74
2023-09-29T16:31:49.200Z,40.16
2023-09-29T16:34:41.431Z,40.41
2023-09-29T16:37:34.454Z,40.94
2023-09-29T16:40:28.923Z,41.29
2023-09-29T16:43:19.959Z,41.75
2023-09-29T16:45:57.200Z,42.08
2023-09-29T16:48:53.914Z,42.22
2023-09-29T16:51:47.011Z,42.52
2023-09-29T16:54:40.326Z,42.89
2023-09-29T16:57:33.756Z,43.20
2023-09-29T17:00:26.299Z,43.45
2023-09-29T17:03:18.795Z,43.77
2023-09-29T17:05:53.604Z,43.87
2023-09-29T17:08:28.592Z,44.12
2023-09-29T17:11:21.395Z,44.57
2023-09-29T17:14:14.395Z,44.78
2023-09-29T17:17:04.718Z,44.98
2023-09-29T17:19:57.194Z,45.31
2023-09-29T17:22:49.471Z,45.58
2023-09-29T17:25:33.052Z,45.78
2023-09-29T17:28:08.096Z,46.01
2023-09-29T17:31:00.410Z,46.39
2023-09-29T17:33:52.771Z,46.60
2023-09-29T17:36:27.895Z,46.77
2023-09-29T17:39:20.289Z,47.11
2023-09-29T17:42:12.755Z,47.35
2023-09-29T17:44:47.812Z,47.75
2023-09-29T17:47:22.757Z,48.13
2023-09-29T17:50:13.497Z,48.33
2023-09-29T17:52:56.775Z,48.77
2023-09-29T17:55:35.543Z,48.88
2023-09-29T17:58:10.451Z,49.00
2023-09-29T18:00:45.830Z,49.12
2023-09-29T18:03:39.518Z,49.49
2023-09-29T18:06:32.615Z,49.81
2023-09-29T18:09:25.073Z,49.97
2023-09-29T18:12:17.541Z,50.24
2023-09-29T18:14:53.081Z,50.45
2023-09-29T18:17:46.190Z,50.79
2023-09-29T18:20:28.152Z,51.14
2023-09-29T18:23:03.444Z,51.30
2023-09-29T18:25:37.299Z,51.65
2023-09-29T18:28:32.671Z,51.80
2023-09-29T18:31:26.441Z,52.01
2023-09-29T18:34:09.216Z,52.10
2023-09-29T18:36:55.461Z,52.29
2023-09-29T18:39:48.269Z,52.50
2023-09-29T18:42:21.028Z,52.67
2023-09-29T18:44:54.059Z,52.87
2023-09-29T18:47:31.025Z,53.04
2023-09-29T18:50:14.247Z,53.28
2023-09-29T18:52:57.608Z,53.45
2023-09-29T18:55:34.968Z,53.53
2023-09-29T18:58:13.095Z,53.57
2023-09-29T19:00:49.428Z,53.71
2023-09-29T19:03:28.012Z,53.94
2023-09-29T19:06:22.299Z,54.21
2023-09-29T19:08:57.670Z,54.32
2023-09-29T19:11:33.396Z,54.50
2023-09-29T19:14:12.147Z,54.57
2023-09-29T19:16:47.186Z,54.62
2023-09-29T19:19:26.026Z,54.79
2023-09-29T19:22:02.026Z,54.91
2023-09-29T19:24:42.415Z,55.04
2023-09-29T19:27:16.186Z,55.18
2023-09-29T19:29:53.808Z,55.33
2023-09-29T19:32:34.455Z,55.51
2023-09-29T19:35:10.940Z,55.71
2023-09-29T19:37:44.945Z,55.78
2023-09-29T19:40:18.643Z,55.93
2023-09-29T19:42:55.653Z,56.12
2023-09-29T19:45:28.422Z,56.41
2023-09-29T19:48:01.166Z,56.51
2023-09-29T19:50:33.463Z,56.67
2023-09-29T19:53:08.964Z,56.84
2023-09-29T19:55:43.241Z,56.87
2023-09-29T19:58:18.569Z,57.05
2023-09-29T20:00:53.483Z,57.16
2023-09-29T20:03:25.904Z,57.21
2023-09-29T20:05:58.329Z,57.30
2023-09-29T20:08:51.714Z,57.50
2023-09-29T20:11:26.371Z,57.49
2023-09-29T20:13:59.682Z,57.59
2023-09-29T20:16:32.910Z,57.75
2023-09-29T20:19:08.315Z,57.81
2023-09-29T20:21:43.484Z,57.94
2023-09-29T20:24:19.677Z,58.03
2023-09-29T20:26:53.114Z,58.15
2023-09-29T20:29:25.427Z,58.26
2023-09-29T20:32:01.332Z,58.27
2023-09-29T20:34:33.378Z,58.47
2023-09-29T20:37:05.500Z,58.61
2023-09-29T20:39:39.168Z,58.65
2023-09-29T20:42:13.871Z,58.80
2023-09-29T20:44:46.642Z,58.80
2023-09-29T20:47:18.676Z,58.92
2023-09-29T20:49:51.305Z,58.93
2023-09-29T20:52:24.804Z,59.07
2023-09-29T20:54:57.772Z,59.07
2023-09-29T20:57:30.152Z,59.11
2023-09-29T21:00:02.517Z,59.14
2023-09-29T21:02:34.876Z,59.19
2023-09-29T21:05:07.928Z,59.35
2023-09-29T21:07:39.968Z,59.40
2023-09-29T21:10:14.439Z,59.41
2023-09-29T21:12:46.376Z,59.45
2023-09-29T21:15:18.507Z,59.52
2023-09-29T21:17:50.606Z,59.53
2023-09-29T21:20:22.956Z,59.66
2023-09-29T21:22:54.938Z,59.56
2023-09-29T21:25:27.388Z,59.62
2023-09-29T21:27:59.586Z,59.69
2023-09-29T21:30:32.272Z,59.66
2023-09-29T21:33:04.571Z,59.71
2023-09-29T21:35:39.123Z,59.75
2023-09-29T21:38:14.410Z,59.86
2023-09-29T21:40:46.372Z,60.00
2023-09-29T21:43:18.554Z,59.97
2023-09-29T21:45:50.532Z,60.20
2023-09-29T21:48:22.644Z,60.24
2023-09-29T21:50:54.884Z,60.23
2023-09-29T21:53:26.910Z,60.25
2023-09-29T21:55:58.810Z,60.36
2023-09-29T21:58:31.650Z,60.43
2023-09-29T22:01:04.067Z,60.45
2023-09-29T22:03:37.881Z,60.50
2023-09-29T22:06:10.338Z,60.65
2023-09-29T22:08:43.641Z,60.54
2023-09-29T22:11:15.894Z,60.55
2023-09-29T22:13:48.107Z,60.49
2023-09-29T22:16:20.323Z,60.51
2023-09-29T22:18:52.974Z,60.66
2023-09-29T22:21:25.930Z,60.63
2023-09-29T22:23:58.283Z,60.73
2023-09-29T22:26:30.513Z,60.82
2023-09-29T22:29:03.082Z,60.96
2023-09-29T22:31:35.376Z,61.04
2023-09-29T22:34:07.842Z,61.03
2023-09-29T22:36:39.925Z,60.99
2023-09-29T22:39:12.012Z,60.95
2023-09-29T22:41:45.338Z,61.01
2023-09-29T22:44:17.350Z,61.06
2023-09-29T22:46:51.186Z,61.10
2023-09-29T22:49:23.986Z,61.22
2023-09-29T22:51:55.914Z,61.28
2023-09-29T22:54:27.926Z,61.28
2023-09-29T22:56:59.857Z,61.23
2023-09-29T22:59:31.975Z,61.30
2023-09-29T23:02:12.676Z,61.18
2023-09-29T23:04:44.607Z,61.13
2023-09-29T23:07:16.538Z,61.40
2023-09-29T23:09:48.495Z,61.48
2023-09-29T23:12:20.551Z,61.45
2023-09-29T23:14:52.601Z,61.55
2023-09-29T23:17:24.566Z,61.67
2023-09-29T23:19:56.460Z,61.69
2023-09-29T23:22:29.363Z,61.81
2023-09-29T23:25:01.330Z,61.83
2023-09-29T23:27:34.591Z,61.85
2023-09-29T23:30:09.930Z,61.80
2023-09-29T23:32:42.025Z,61.83
2023-09-29T23:35:14.231Z,61.81
2023-09-29T23:37:46.322Z,61.92
2023-09-29T23:40:18.865Z,61.88
2023-09-29T23:42:50.970Z,61.96
2023-09-29T23:45:22.995Z,62.03
2023-09-29T23:47:54.936Z,62.17
2023-09-29T23:50:27.374Z,62.21
2023-09-29T23:52:59.361Z,62.28
2023-09-29T23:55:31.364Z,62.21
2023-09-29T23:58:03.418Z,62.29
